Time;durP1;ratioP1;P1;durP2;ratioP2;P2;SDS_P1;SDS_P2;PMS_P1;PMS_P2;Temp;Humidity;BMP_temperature;BMP_pressure;BME280_temperature;BME280_humidity;BME280_pressure;Samples;Min_cycle;Max_cycle;Signal;HPM_P1;HPM_P2
2023/01/14 00:02:17;;;;;;;16.58;3.88;;;;;;;6.24;89.08;101442.97;5023611;28;20568;-66
2023/01/14 00:04:42;;;;;;;15.68;4.07;;;;;;;6.19;89.04;101447.06;5023282;28;20018;-66
2023/01/14 00:07:07;;;;;;;17.10;4.70;;;;;;;6.15;89.40;101455.47;5023656;28;20033;-66
2023/01/14 00:09:33;;;;;;;17.60;4.18;;;;;;;6.11;89.40;101456.13;5023700;28;20485;-66
2023/01/14 00:11:58;;;;;;;18.35;3.80;;;;;;;6.07;89.88;101455.97;5023931;28;20037;-66
2023/01/14 00:14:28;;;;;;;19.08;4.03;;;;;;;6.05;90.24;101459.28;5023147;28;20434;-66
2023/01/14 00:16:54;;;;;;;20.23;4.28;;;;;;;6.02;89.88;101464.28;5022437;28;20037;-66
2023/01/14 00:19:21;;;;;;;19.15;4.35;;;;;;;6.00;90.03;101456.44;5023670;28;20030;-66
2023/01/14 00:21:47;;;;;;;21.23;4.00;;;;;;;5.98;89.94;101457.16;5023494;28;20506;-66
2023/01/14 00:24:14;;;;;;;16.52;3.30;;;;;;;5.96;90.18;101459.66;5022716;28;20541;-66
2023/01/14 00:26:41;;;;;;;17.40;4.57;;;;;;;5.94;89.75;101458.69;5022541;28;20025;-66
2023/01/14 00:29:08;;;;;;;19.02;4.50;;;;;;;5.92;90.17;101463.78;5021209;28;20071;-66
2023/01/14 00:31:34;;;;;;;21.88;3.78;;;;;;;5.90;90.57;101457.63;5022631;28;20028;-66
2023/01/14 00:33:59;;;;;;;26.65;4.20;;;;;;;5.88;89.93;101451.50;5022269;28;20021;-66
2023/01/14 00:36:26;;;;;;;18.55;3.83;;;;;;;5.87;90.17;101449.72;5038674;28;20025;-66
2023/01/14 00:38:53;;;;;;;18.05;4.53;;;;;;;5.85;90.09;101453.94;5021591;28;20021;-66
2023/01/14 00:41:21;;;;;;;14.27;3.75;;;;;;;5.83;90.46;101454.66;5037542;28;20442;-66
2023/01/14 00:43:49;;;;;;;19.27;4.15;;;;;;;5.80;90.66;101452.78;5025681;28;20072;-66
2023/01/14 00:46:18;;;;;;;19.15;4.25;;;;;;;5.77;90.52;101465.56;5025875;28;20025;-66
2023/01/14 00:48:44;;;;;;;18.75;3.58;;;;;;;5.74;90.77;101463.69;5026328;28;20211;-66
2023/01/14 00:51:11;;;;;;;20.42;4.15;;;;;;;5.74;90.85;101475.75;5026495;28;20679;-66
2023/01/14 00:53:37;;;;;;;18.20;4.93;;;;;;;5.71;91.31;101468.69;5025850;28;20146;-66
2023/01/14 00:56:04;;;;;;;22.40;4.32;;;;;;;5.68;91.73;101470.25;5026192;28;20077;-66
2023/01/14 00:58:29;;;;;;;18.40;4.97;;;;;;;5.67;92.12;101471.91;5026069;28;20068;-66
2023/01/14 01:00:55;;;;;;;25.80;5.07;;;;;;;5.66;92.10;101464.09;5025146;28;20025;-66
2023/01/14 01:03:21;;;;;;;22.17;4.90;;;;;;;5.64;92.83;101471.75;5026571;28;20025;-66
2023/01/14 01:05:47;;;;;;;22.65;4.65;;;;;;;5.62;92.84;101470.81;5026443;28;20108;-66
2023/01/14 01:08:15;;;;;;;22.23;5.10;;;;;;;5.62;93.29;101468.22;5026424;28;20494;-66
2023/01/14 01:10:45;;;;;;;25.77;4.78;;;;;;;5.62;93.44;101473.38;5026122;28;20053;-66
2023/01/14 01:13:11;;;;;;;24.33;4.72;;;;;;;5.62;93.38;101472.47;5026612;28;20029;-66
2023/01/14 01:15:38;;;;;;;27.15;4.93;;;;;;;5.62;93.89;101473.38;5025958;28;20056;-66
2023/01/14 01:18:05;;;;;;;26.13;4.47;;;;;;;5.63;93.66;101471.69;5026467;28;20053;-66
2023/01/14 01:20:31;;;;;;;19.65;4.63;;;;;;;5.60;93.98;101474.09;5026837;28;20029;-66
2023/01/14 01:22:57;;;;;;;26.60;5.03;;;;;;;5.57;93.80;101475.69;5026374;28;20168;-66
2023/01/14 01:25:22;;;;;;;22.85;4.32;;;;;;;5.55;93.81;101463.53;5026070;28;20136;-66
2023/01/14 01:27:48;;;;;;;23.33;5.50;;;;;;;5.53;94.60;101467.72;5026499;28;21465;-66
2023/01/14 01:30:14;;;;;;;30.98;5.38;;;;;;;5.52;94.50;101458.19;5026631;28;20026;-66
2023/01/14 01:32:39;;;;;;;25.35;4.80;;;;;;;5.51;94.56;101466.75;5026474;28;20052;-66
2023/01/14 01:35:05;;;;;;;24.80;4.93;;;;;;;5.49;94.61;101466.66;5024263;28;20052;-66
2023/01/14 01:37:31;;;;;;;22.85;4.90;;;;;;;5.48;94.95;101466.59;5024930;28;20037;-64
2023/01/14 01:39:56;;;;;;;24.38;4.22;;;;;;;5.47;94.36;101457.03;5024468;28;20041;-64
2023/01/14 01:42:23;;;;;;;30.17;4.80;;;;;;;5.47;95.12;101457.91;5024487;28;20396;-64
2023/01/14 01:44:48;;;;;;;31.65;5.07;;;;;;;5.47;95.02;101467.38;5025902;28;20025;-63
2023/01/14 01:47:15;;;;;;;27.08;5.15;;;;;;;5.46;95.25;101465.59;5024958;28;20025;-63
2023/01/14 01:49:41;;;;;;;32.20;5.25;;;;;;;5.45;95.26;101466.44;5024361;28;20116;-64
2023/01/14 01:52:13;;;;;;;23.63;4.72;;;;;;;5.44;95.23;101467.22;5025091;28;20160;-63
2023/01/14 01:54:45;;;;;;;21.80;5.07;;;;;;;5.44;95.32;101462.06;5023160;28;20544;-63
2023/01/14 01:57:13;;;;;;;23.63;4.78;;;;;;;5.43;95.08;101465.44;5025394;28;20076;-64
2023/01/14 01:59:44;;;;;;;26.52;5.10;;;;;;;5.42;95.33;101466.22;5024436;28;20490;-63
2023/01/14 02:02:09;;;;;;;25.90;4.90;;;;;;;5.42;95.10;101466.22;5024708;28;20025;-63
2023/01/14 02:04:35;;;;;;;21.75;4.63;;;;;;;5.42;95.23;101458.47;5025948;28;20024;-63
2023/01/14 02:07:15;;;;;;;31.40;5.53;;;;;;;5.40;95.64;101454.13;5025725;28;20445;-63
2023/01/14 02:09:40;;;;;;;25.85;4.63;;;;;;;5.40;95.86;101454.13;5025152;28;20075;-64
2023/01/14 02:12:24;;;;;;;32.75;5.03;;;;;;;5.39;95.53;101448.88;5025239;28;20033;-63
2023/01/14 02:15:18;;;;;;;29.38;4.97;;;;;;;5.37;95.69;101441.06;5025324;28;20021;-63
2023/01/14 02:17:59;;;;;;;28.45;4.28;;;;;;;5.36;95.89;101436.69;5021614;28;20045;-64
2023/01/14 02:20:28;;;;;;;28.30;4.72;;;;;;;5.35;96.08;101429.72;5025228;28;20025;-64
2023/01/14 02:23:15;;;;;;;24.17;4.28;;;;;;;5.34;95.92;101421.88;5025647;28;20040;-63
2023/01/14 02:25:58;;;;;;;31.95;4.97;;;;;;;5.32;96.26;101408.88;5024697;28;20175;-63
2023/01/14 02:28:33;;;;;;;23.45;4.38;;;;;;;5.30;96.39;101400.19;5024981;28;20045;-64
2023/01/14 02:31:12;;;;;;;26.58;4.60;;;;;;;5.27;96.06;101392.28;5023813;28;20041;-63
2023/01/14 02:33:47;;;;;;;;;;;;;;;5.30;95.37;101382.09;5025325;28;20080;-63
2023/01/14 02:36:24;;;;;;;29.63;4.25;;;;;;;5.25;96.06;101383.53;5023870;28;19916;-66
2023/01/14 02:39:03;;;;;;;29.40;4.53;;;;;;;5.23;96.80;101386.03;5023191;28;20029;-66
2023/01/14 02:44:38;;;;;;;23.55;4.10;;;;;;;5.20;96.89;101377.25;5021729;28;20593;-66
2023/01/14 02:47:12;;;;;;;20.20;4.25;;;;;;;5.19;97.25;101367.72;5022437;28;20068;-66
2023/01/14 02:49:42;;;;;;;24.50;4.38;;;;;;;5.17;97.13;101361.53;5023476;28;20172;-66
2023/01/14 02:52:08;;;;;;;26.25;5.47;;;;;;;5.16;97.23;101370.13;5023868;28;20029;-66
2023/01/14 02:54:34;;;;;;;28.63;5.35;;;;;;;5.14;97.46;101364.88;5023326;28;20041;-66
2023/01/14 02:57:07;;;;;;;24.88;4.93;;;;;;;5.15;97.92;101364.06;5022488;28;20106;-66
2023/01/14 02:59:48;;;;;;;32.35;4.72;;;;;;;5.15;98.14;101355.44;5022637;28;20420;-66
2023/01/14 03:02:25;;;;;;;21.70;4.50;;;;;;;5.15;98.26;101358.00;5022822;28;20052;-67
2023/01/14 03:04:50;;;;;;;31.88;5.22;;;;;;;5.15;98.33;101360.59;5023358;28;20095;-66
2023/01/14 03:07:45;;;;;;;28.27;5.15;;;;;;;5.16;98.17;101360.66;5024224;28;20065;-66
2023/01/14 03:10:39;;;;;;;29.10;4.78;;;;;;;5.15;98.30;101356.31;5024002;28;20029;-66
2023/01/14 03:13:29;;;;;;;22.90;4.35;;;;;;;5.13;98.17;101350.19;5018892;28;20037;-66
2023/01/14 03:16:17;;;;;;;23.63;4.45;;;;;;;5.14;98.62;101338.13;5023930;28;20040;-66
2023/01/14 03:19:07;;;;;;;33.00;5.00;;;;;;;5.13;98.33;101332.09;5024467;28;20034;-66
2023/01/14 03:21:39;;;;;;;24.90;4.35;;;;;;;5.12;98.87;101314.81;5024278;28;20048;-66
2023/01/14 03:24:10;;;;;;;22.42;4.43;;;;;;;5.13;98.71;101313.13;5023465;28;20025;-66
2023/01/14 03:26:38;;;;;;;27.67;5.03;;;;;;;5.13;99.11;101315.72;5023677;28;20038;-66
2023/01/14 03:29:10;;;;;;;25.08;4.70;;;;;;;5.14;99.05;101328.72;5024597;28;20029;-66
2023/01/14 03:31:41;;;;;;;23.67;4.22;;;;;;;5.16;99.46;101318.47;5023790;28;20075;-66
2023/01/14 03:34:12;;;;;;;24.92;5.00;;;;;;;5.17;99.09;101315.97;5023711;28;20080;-66
2023/01/14 03:36:40;;;;;;;30.90;4.53;;;;;;;5.18;99.18;101306.50;5023384;28;20117;-66
2023/01/14 03:39:11;;;;;;;28.00;4.18;;;;;;;5.19;99.73;101311.75;5024473;28;20652;-66
2023/01/14 03:44:26;;;;;;;23.17;5.15;;;;;;;5.24;99.42;101309.41;5022475;28;20079;-66
2023/01/14 03:46:52;;;;;;;27.63;4.32;;;;;;;5.25;99.88;101306.03;5023036;28;20056;-66
2023/01/14 03:49:17;;;;;;;22.50;4.25;;;;;;;5.27;100.00;101309.59;5023615;28;20454;-66
2023/01/14 03:52:03;;;;;;;22.67;4.75;;;;;;;5.31;99.98;101306.34;5022943;28;20104;-66
2023/01/14 03:54:56;;;;;;;23.45;4.10;;;;;;;5.36;100.00;101291.97;5022737;28;20090;-66
2023/01/14 03:57:36;;;;;;;26.85;4.15;;;;;;;5.38;100.00;101285.16;5022765;28;20032;-66
2023/01/14 04:00:19;;;;;;;24.33;4.53;;;;;;;5.40;100.00;101281.00;5021236;28;20107;-66
2023/01/14 04:02:46;;;;;;;18.88;3.47;;;;;;;5.44;99.55;101286.31;5022407;28;20029;-66
2023/01/14 04:05:12;;;;;;;31.92;5.20;;;;;;;5.44;100.00;101278.56;5022354;28;20030;-66
2023/01/14 04:07:37;;;;;;;18.83;3.97;;;;;;;5.46;100.00;101274.34;5024232;28;20299;-66
2023/01/14 04:10:03;;;;;;;23.20;3.75;;;;;;;5.45;99.54;101268.31;5023307;28;20025;-66
2023/01/14 04:12:29;;;;;;;20.90;4.03;;;;;;;5.46;99.44;101259.75;5023632;28;20037;-66
2023/01/14 04:17:38;;;;;;;19.17;4.07;;;;;;;5.46;99.42;101240.75;5024134;28;20885;-66
2023/01/14 04:20:05;;;;;;;27.25;4.03;;;;;;;5.45;99.25;101239.88;5024731;28;20029;-66
2023/01/14 04:22:30;;;;;;;26.90;4.45;;;;;;;5.46;100.00;101235.56;5025097;28;20040;-66
2023/01/14 04:24:55;;;;;;;23.95;5.07;;;;;;;5.45;99.67;101231.25;5026539;28;20025;-66
2023/01/14 04:27:21;;;;;;;23.83;4.10;;;;;;;5.46;99.54;101227.81;5025556;28;20028;-66
2023/01/14 04:29:46;;;;;;;25.40;3.47;;;;;;;5.45;99.55;101224.38;5026242;28;20025;-66
2023/01/14 04:32:11;;;;;;;24.33;4.07;;;;;;;5.44;99.40;101217.41;5025681;28;20691;-66
2023/01/14 04:34:37;;;;;;;21.85;3.72;;;;;;;5.43;99.63;101207.00;5027332;28;20030;-66
2023/01/14 04:37:02;;;;;;;25.83;4.40;;;;;;;5.39;99.58;101201.69;5025265;28;20033;-66
2023/01/14 04:39:27;;;;;;;27.52;3.78;;;;;;;5.37;99.74;101202.41;5025112;28;20029;-66
2023/01/14 04:44:37;;;;;;;25.25;4.10;;;;;;;5.28;99.96;101205.41;5023550;28;20113;-66
2023/01/14 04:47:02;;;;;;;22.98;3.85;;;;;;;5.25;100.00;101202.69;5025398;28;20108;-66
2023/01/14 04:49:28;;;;;;;21.13;3.58;;;;;;;5.21;100.00;101206.81;5024969;28;20095;-66
2023/01/14 04:51:53;;;;;;;20.42;3.45;;;;;;;5.19;100.00;101199.78;5023848;28;20025;-66
2023/01/14 04:54:18;;;;;;;16.70;4.32;;;;;;;5.17;100.00;101193.63;5025797;28;20067;-66
2023/01/14 04:56:43;;;;;;;23.50;4.03;;;;;;;5.17;100.00;101193.63;5024903;28;20399;-66
2023/01/14 04:59:09;;;;;;;26.33;3.95;;;;;;;5.17;100.00;101196.22;5025899;28;20218;-66
2023/01/14 05:01:34;;;;;;;16.33;3.70;;;;;;;5.17;100.00;101180.72;5025422;28;20028;-66
2023/01/14 05:03:59;;;;;;;20.35;3.72;;;;;;;5.14;100.00;101184.06;5025364;28;20407;-66
2023/01/14 05:06:26;;;;;;;23.38;3.78;;;;;;;5.13;100.00;101184.00;5024237;28;20288;-66
2023/01/14 05:08:51;;;;;;;21.05;3.85;;;;;;;5.14;100.00;101172.81;5025066;28;20021;-66
2023/01/14 05:11:16;;;;;;;22.75;3.80;;;;;;;5.14;100.00;101165.97;5025215;28;20025;-66
2023/01/14 05:13:42;;;;;;;19.42;3.75;;;;;;;5.17;100.00;101166.13;5023369;28;20471;-66
2023/01/14 05:16:07;;;;;;;18.35;3.67;;;;;;;5.19;100.00;101168.78;5025743;28;20484;-66
2023/01/14 05:18:32;;;;;;;19.95;3.72;;;;;;;5.23;100.00;101163.84;5024045;28;20056;-66
2023/01/14 05:20:58;;;;;;;22.40;4.05;;;;;;;5.26;99.75;101157.06;5025175;28;20446;-66
2023/01/14 05:23:23;;;;;;;19.73;3.88;;;;;;;5.26;100.00;101147.63;5025428;28;20017;-66
2023/01/14 05:25:50;;;;;;;20.50;3.85;;;;;;;5.28;99.99;101129.63;5024743;28;20029;-66
2023/01/14 05:28:17;;;;;;;21.42;3.70;;;;;;;5.30;99.43;101136.63;5023190;28;20040;-66
2023/01/14 05:30:42;;;;;;;17.38;3.13;;;;;;;5.32;99.80;101126.38;5025827;28;20041;-66
2023/01/14 05:33:08;;;;;;;24.50;3.85;;;;;;;5.33;99.92;101121.28;5024158;28;20037;-66
2023/01/14 05:35:33;;;;;;;20.00;3.72;;;;;;;5.35;99.57;101111.03;5023546;28;20025;-66
2023/01/14 05:37:59;;;;;;;25.10;3.67;;;;;;;5.36;99.24;101105.06;5024950;28;20487;-66
2023/01/14 05:40:25;;;;;;;23.63;3.38;;;;;;;5.36;99.39;101093.00;5025097;28;20044;-66
2023/01/14 05:45:49;;;;;;;19.23;4.40;;;;;;;5.39;99.35;101080.22;5023518;28;20048;-66
2023/01/14 05:48:33;;;;;;;16.13;3.35;;;;;;;5.43;98.86;101073.53;5024073;28;20021;-66
2023/01/14 05:50:59;;;;;;;16.30;3.05;;;;;;;5.44;99.19;101070.09;5025861;28;20040;-66
2023/01/14 05:53:27;;;;;;;23.05;3.45;;;;;;;5.45;98.69;101063.25;5025560;28;20503;-66
2023/01/14 05:55:53;;;;;;;26.80;4.05;;;;;;;5.45;98.95;101051.22;5025191;28;20037;-66
2023/01/14 05:58:19;;;;;;;20.23;3.47;;;;;;;5.48;98.55;101051.34;5022726;28;20025;-67
2023/01/14 06:06:34;;;;;;;20.48;3.45;;;;;;;5.54;98.59;101040.44;5025461;28;20036;-66
2023/01/14 06:09:03;;;;;;;21.90;3.35;;;;;;;5.56;98.16;101029.34;5025559;28;20029;-66
2023/01/14 06:11:29;;;;;;;18.30;3.00;;;;;;;5.59;97.83;101023.44;5024035;28;20152;-66
2023/01/14 06:13:59;;;;;;;17.98;2.97;;;;;;;5.62;97.99;101026.19;5024714;28;20061;-66
2023/01/14 06:16:27;;;;;;;23.63;3.13;;;;;;;5.63;97.82;101009.81;5025385;28;20072;-66
2023/01/14 06:18:53;;;;;;;28.25;3.97;;;;;;;5.66;97.35;101003.91;5025015;28;20491;-66
2023/01/14 06:21:26;;;;;;;19.95;3.35;;;;;;;5.70;97.32;100995.50;5024550;28;20080;-66
2023/01/14 06:23:52;;;;;;;18.42;3.70;;;;;;;5.72;97.33;100988.69;5025254;28;20057;-66
2023/01/14 06:26:19;;;;;;;23.58;3.83;;;;;;;5.72;97.77;100984.41;5041262;28;20065;-66
2023/01/14 06:28:44;;;;;;;15.20;3.10;;;;;;;5.74;97.72;100974.13;5024551;28;20029;-66
2023/01/14 06:31:18;;;;;;;23.73;3.85;;;;;;;5.73;98.67;100980.13;5024943;28;20025;-66
2023/01/14 06:33:45;;;;;;;14.35;3.03;;;;;;;5.74;98.51;100972.44;5023941;28;20479;-66
2023/01/14 06:36:12;;;;;;;20.30;3.38;;;;;;;5.75;98.44;100953.53;5023928;28;20025;-66
2023/01/14 06:38:38;;;;;;;21.77;3.38;;;;;;;5.75;98.96;100963.00;5023228;28;20025;-66
2023/01/14 06:41:05;;;;;;;25.00;3.60;;;;;;;5.75;98.97;100953.53;5023757;28;20037;-66
2023/01/14 06:43:32;;;;;;;21.30;3.53;;;;;;;5.75;99.06;100943.19;5023356;28;20087;-66
2023/01/14 06:45:57;;;;;;;17.63;3.75;;;;;;;5.75;99.17;100938.00;5022682;28;20500;-66
2023/01/14 06:48:24;;;;;;;17.92;3.40;;;;;;;5.76;99.50;100931.13;5023743;28;20036;-66
2023/01/14 06:50:50;;;;;;;16.25;3.22;;;;;;;5.76;100.00;100928.53;5021414;28;20026;-66
2023/01/14 06:53:16;;;;;;;26.60;3.85;;;;;;;5.77;100.00;100919.97;5024057;28;20026;-66
2023/01/14 06:55:42;;;;;;;17.05;3.50;;;;;;;5.76;100.00;100920.78;5024010;28;20048;-66
2023/01/14 06:58:07;;;;;;;16.15;3.17;;;;;;;5.75;100.00;100922.50;5024520;28;20083;-66
2023/01/14 07:00:33;;;;;;;15.70;3.28;;;;;;;5.77;100.00;100913.94;5021458;28;20025;-66
2023/01/14 07:02:58;;;;;;;20.15;3.15;;;;;;;5.77;100.00;100901.88;5022944;28;20057;-66
2023/01/14 07:05:23;;;;;;;17.50;3.40;;;;;;;5.77;100.00;100899.28;5023815;28;20025;-66
2023/01/14 07:07:49;;;;;;;15.60;2.92;;;;;;;5.78;100.00;100889.81;5023641;28;20036;-66
2023/01/14 07:10:16;;;;;;;16.42;3.60;;;;;;;5.76;100.00;100876.84;5022830;28;20082;-66
2023/01/14 07:12:47;;;;;;;15.93;3.03;;;;;;;5.76;100.00;100879.41;5022787;28;20036;-66
2023/01/14 07:15:13;;;;;;;15.70;3.08;;;;;;;5.74;100.00;100865.56;5023666;28;20049;-66
2023/01/14 07:17:39;;;;;;;13.07;3.42;;;;;;;5.74;100.00;100863.84;5023081;28;20068;-66
2023/01/14 07:20:06;;;;;;;15.80;3.50;;;;;;;5.74;100.00;100852.63;5022674;28;20045;-66
2023/01/14 07:22:32;;;;;;;18.60;3.28;;;;;;;5.74;100.00;100835.41;5022690;28;20028;-66
2023/01/14 07:24:57;;;;;;;15.00;3.25;;;;;;;5.72;100.00;100829.31;5023468;28;20033;-66
2023/01/14 07:27:22;;;;;;;13.75;2.67;;;;;;;5.72;100.00;100834.47;5022058;28;20041;-66
2023/01/14 07:29:48;;;;;;;13.43;3.35;;;;;;;5.75;100.00;100820.78;5022463;28;20118;-66
2023/01/14 07:32:13;;;;;;;13.90;2.88;;;;;;;5.74;100.00;100822.47;5019970;28;20124;-66
2023/01/14 07:34:38;;;;;;;12.77;2.97;;;;;;;5.75;100.00;100828.56;5021995;28;20026;-66
2023/01/14 07:37:04;;;;;;;10.48;3.05;;;;;;;5.74;100.00;100817.31;5018576;28;20032;-66
2023/01/14 07:39:29;;;;;;;17.20;3.85;;;;;;;5.77;100.00;100816.56;5023284;28;20025;-66
2023/01/14 07:41:55;;;;;;;12.98;3.85;;;;;;;5.78;100.00;100814.84;5023007;28;20036;-66
2023/01/14 07:44:23;;;;;;;11.10;2.83;;;;;;;5.79;100.00;100803.69;5022717;28;20017;-66
2023/01/14 07:46:54;;;;;;;14.90;3.47;;;;;;;5.81;100.00;100786.53;5021290;28;20037;-66
2023/01/14 07:49:20;;;;;;;15.95;3.42;;;;;;;5.81;100.00;100776.19;5022037;28;20498;-67
2023/01/14 07:51:46;;;;;;;13.10;3.40;;;;;;;5.82;100.00;100770.22;5022745;28;20030;-67
2023/01/14 07:54:11;;;;;;;10.45;2.85;;;;;;;5.83;100.00;100759.94;5021398;28;20044;-66
2023/01/14 07:56:36;;;;;;;10.32;3.05;;;;;;;5.85;100.00;100752.22;5022457;28;20054;-66
2023/01/14 07:59:02;;;;;;;13.07;3.17;;;;;;;5.86;100.00;100741.09;5022631;28;20037;-66
2023/01/14 08:01:27;;;;;;;11.93;2.95;;;;;;;5.87;100.00;100732.50;5023688;28;20030;-66
2023/01/14 08:03:52;;;;;;;8.68;3.30;;;;;;;5.91;100.00;100717.19;5021656;28;20022;-66
2023/01/14 08:06:18;;;;;;;9.10;2.75;;;;;;;5.94;100.00;100713.84;5021865;28;20021;-66
2023/01/14 08:08:43;;;;;;;9.05;3.15;;;;;;;5.95;100.00;100707.81;5023988;28;20033;-66
2023/01/14 08:11:08;;;;;;;10.35;2.90;;;;;;;5.98;100.00;100689.91;5023034;28;20025;-66
2023/01/14 08:13:34;;;;;;;8.07;2.63;;;;;;;6.00;100.00;100688.25;5019919;28;20026;-66
2023/01/14 08:16:01;;;;;;;10.57;2.63;;;;;;;6.01;100.00;100696.88;5018784;28;20060;-67
2023/01/14 08:18:26;;;;;;;7.95;2.58;;;;;;;6.01;100.00;100677.09;5020929;28;20078;-66
2023/01/14 08:20:57;;;;;;;10.35;2.90;;;;;;;6.06;100.00;100648.81;5020950;28;20036;-66
2023/01/14 08:23:22;;;;;;;10.02;2.70;;;;;;;6.08;100.00;100662.66;5021121;28;20025;-66
2023/01/14 08:25:47;;;;;;;9.95;2.80;;;;;;;6.10;100.00;100658.47;5020774;28;20025;-66
2023/01/14 08:28:13;;;;;;;8.98;3.10;;;;;;;6.12;100.00;100637.81;5021973;28;20544;-64
2023/01/14 08:30:38;;;;;;;6.78;2.33;;;;;;;6.15;100.00;100645.69;5022593;28;20033;-64
2023/01/14 08:33:03;;;;;;;8.88;2.40;;;;;;;6.15;100.00;100633.63;5023522;28;20140;-64
2023/01/14 08:35:28;;;;;;;7.65;1.90;;;;;;;6.18;100.00;100609.59;5023946;28;20037;-64
2023/01/14 08:37:54;;;;;;;6.28;2.03;;;;;;;6.20;100.00;100605.34;5023540;28;20029;-62
2023/01/14 08:40:19;;;;;;;5.45;1.98;;;;;;;6.23;100.00;100610.66;5021762;28;20052;-62
2023/01/14 08:42:45;;;;;;;4.63;2.00;;;;;;;6.27;100.00;100602.16;5037104;28;20037;-62
2023/01/14 08:45:11;;;;;;;7.32;2.10;;;;;;;6.29;100.00;100590.19;5037944;28;20087;-61
2023/01/14 08:47:36;;;;;;;7.72;2.10;;;;;;;6.32;100.00;100579.94;5021811;28;20100;-62
2023/01/14 08:50:01;;;;;;;7.70;2.38;;;;;;;6.34;100.00;100573.09;5021708;28;20395;-62
2023/01/14 08:52:29;;;;;;;5.75;1.73;;;;;;;6.35;100.00;100569.69;5021734;28;20025;-62
2023/01/14 08:54:54;;;;;;;6.85;1.70;;;;;;;6.36;100.00;100566.28;5022105;28;20061;-62
2023/01/14 08:57:20;;;;;;;8.10;2.47;;;;;;;6.40;100.00;100544.88;5023707;28;20146;-62
2023/01/14 08:59:46;;;;;;;5.65;1.70;;;;;;;6.43;100.00;100546.66;5023134;28;20030;-62
2023/01/14 09:02:14;;;;;;;5.38;1.65;;;;;;;6.46;100.00;100532.97;5021873;28;20064;-62
2023/01/14 09:04:40;;;;;;;7.15;1.95;;;;;;;6.49;100.00;100527.88;5026649;28;20021;-62
2023/01/14 09:18:03;;;;;;;7.57;1.70;;;;;;;6.63;100.00;100505.06;5024102;28;20044;-63
2023/01/14 09:20:34;;;;;;;5.03;1.67;;;;;;;6.65;100.00;100488.78;5022449;28;20029;-63
2023/01/14 09:23:01;;;;;;;5.60;1.70;;;;;;;6.66;100.00;100477.56;5023690;28;20033;-63
2023/01/14 09:25:26;;;;;;;11.35;3.30;;;;;;;6.69;100.00;100475.09;5025946;28;20138;-63
2023/01/14 09:27:52;;;;;;;15.90;6.78;;;;;;;6.70;100.00;100475.97;5024719;28;22211;-63
2023/01/14 09:30:17;;;;;;;12.05;6.38;;;;;;;6.72;100.00;100446.72;5024562;28;20468;-63
2023/01/14 09:32:42;;;;;;;11.27;6.47;;;;;;;6.76;100.00;100466.72;5023063;28;20024;-62
2023/01/14 09:35:08;;;;;;;6.47;3.05;;;;;;;6.79;100.00;100445.19;5026088;28;20417;-62
2023/01/14 09:37:33;;;;;;;6.68;2.63;;;;;;;6.82;100.00;100444.44;5025714;28;20586;-62
2023/01/14 09:40:00;;;;;;;6.90;3.90;;;;;;;6.84;100.00;100435.88;5026465;28;20577;-62
2023/01/14 09:42:30;;;;;;;23.25;12.45;;;;;;;6.86;100.00;100429.03;5025881;28;20034;-62
2023/01/14 09:45:22;;;;;;;13.90;7.65;;;;;;;6.89;100.00;100423.94;5025721;28;20024;-62
2023/01/14 09:47:48;;;;;;;8.27;4.50;;;;;;;6.90;100.00;100405.00;5026492;28;20796;-62
2023/01/14 09:50:16;;;;;;;5.97;2.53;;;;;;;6.95;100.00;100423.25;5025926;28;20503;-62
2023/01/14 09:53:01;;;;;;;9.93;4.22;;;;;;;6.95;100.00;100403.44;5025551;28;20605;-62
2023/01/14 09:55:33;;;;;;;6.50;2.20;;;;;;;6.99;100.00;100403.53;5024963;28;20859;-62
2023/01/14 09:58:04;;;;;;;5.15;2.20;;;;;;;6.99;100.00;100404.41;5025391;28;20033;-63
2023/01/14 10:00:55;;;;;;;10.73;2.00;;;;;;;7.02;100.00;100411.38;5024932;28;20025;-62
2023/01/14 10:03:28;;;;;;;5.30;1.70;;;;;;;7.04;100.00;100386.41;5025158;28;20018;-62
2023/01/14 10:05:58;;;;;;;6.47;1.80;;;;;;;7.06;100.00;100372.66;5025135;28;20029;-62
2023/01/14 10:08:26;;;;;;;7.13;3.20;;;;;;;7.09;100.00;100379.66;5025932;28;20496;-62
2023/01/14 10:10:52;;;;;;;8.75;2.40;;;;;;;7.10;100.00;100361.56;5025656;28;20165;-62
2023/01/14 10:13:28;;;;;;;6.93;2.03;;;;;;;7.16;100.00;100360.00;5025689;28;20060;-63
2023/01/14 10:15:58;;;;;;;5.28;2.05;;;;;;;7.19;100.00;100327.28;5025053;28;20025;-62
2023/01/14 10:18:51;;;;;;;9.55;3.47;;;;;;;7.23;100.00;100328.25;5025425;28;20127;-62
2023/01/14 10:21:36;;;;;;;7.00;2.10;;;;;;;7.27;100.00;100317.13;5025337;28;20041;-62
2023/01/14 10:24:01;;;;;;;6.55;2.03;;;;;;;7.34;100.00;100313.88;5025656;28;20491;-62
2023/01/14 10:26:34;;;;;;;6.32;2.08;;;;;;;7.38;100.00;100299.28;5025215;28;20041;-63
2023/01/14 10:29:10;;;;;;;6.63;2.00;;;;;;;7.39;100.00;100286.38;5025378;28;20036;-62
2023/01/14 10:31:37;;;;;;;5.97;2.00;;;;;;;7.45;100.00;100278.75;5024882;28;20488;-63
2023/01/14 10:34:03;;;;;;;4.53;1.45;;;;;;;7.46;100.00;100277.94;5025398;28;20031;-62
2023/01/14 10:36:30;;;;;;;7.38;1.92;;;;;;;7.51;100.00;100261.63;5025388;28;20033;-64
2023/01/14 10:38:58;;;;;;;6.45;1.67;;;;;;;7.56;100.00;100263.50;5025541;28;20068;-64
2023/01/14 10:44:19;;;;;;;5.28;1.70;;;;;;;7.63;100.00;100247.28;5022138;28;20084;-66
2023/01/14 10:46:45;;;;;;;6.40;1.63;;;;;;;7.69;100.00;100259.53;5024524;28;20044;-66
2023/01/14 10:49:27;;;;;;;4.45;1.90;;;;;;;7.69;100.00;100228.41;5023544;28;20025;-67
2023/01/14 10:51:53;;;;;;;6.05;1.58;;;;;;;7.71;100.00;100226.72;5023074;28;20130;-67
2023/01/14 10:54:21;;;;;;;6.40;1.75;;;;;;;7.73;100.00;100209.47;5022710;28;20100;-67
2023/01/14 10:57:06;;;;;;;11.73;5.88;;;;;;;7.76;100.00;100211.28;5023807;28;20156;-67
2023/01/14 10:59:50;;;;;;;8.35;4.00;;;;;;;7.80;100.00;100208.78;5024105;28;20029;-67
2023/01/14 11:02:26;;;;;;;9.48;6.20;;;;;;;7.83;100.00;100195.91;5022834;28;20487;-67
2023/01/14 11:04:51;;;;;;;4.75;2.10;;;;;;;7.87;100.00;100172.63;5022485;28;20068;-67
2023/01/14 11:07:26;;;;;;;6.72;1.90;;;;;;;7.92;100.00;100173.59;5024210;28;20406;-67
2023/01/14 11:09:53;;;;;;;4.72;1.70;;;;;;;7.95;100.00;100165.91;5018183;28;20045;-67
2023/01/14 11:12:33;;;;;;;5.63;2.30;;;;;;;7.97;100.00;100157.31;5018994;28;20826;-67
2023/01/14 11:14:59;;;;;;;5.10;2.22;;;;;;;7.99;100.00;100150.47;5022580;28;20035;-67
2023/01/14 11:17:28;;;;;;;3.22;1.20;;;;;;;8.04;100.00;100147.06;5023988;28;20032;-67
2023/01/14 11:20:23;;;;;;;5.03;1.40;;;;;;;8.04;100.00;100142.78;5023877;28;20021;-67
2023/01/14 11:23:01;;;;;;;4.72;1.40;;;;;;;8.08;100.00;100135.91;5023028;28;20025;-67
2023/01/14 11:25:28;;;;;;;4.47;1.40;;;;;;;8.10;100.00;100124.75;5020811;28;20488;-67
2023/01/14 11:27:55;;;;;;;3.88;1.35;;;;;;;8.13;100.00;100109.22;5021436;28;20026;-66
2023/01/14 11:30:23;;;;;;;2.28;1.00;;;;;;;8.18;100.00;100118.00;5021672;28;20409;-67
2023/01/14 11:32:51;;;;;;;3.67;1.40;;;;;;;8.18;100.00;100110.22;5022176;28;20018;-67
2023/01/14 11:35:28;;;;;;;5.65;1.40;;;;;;;8.22;100.00;100111.16;5022090;28;20038;-66
2023/01/14 11:37:55;;;;;;;2.65;1.20;;;;;;;8.23;100.00;100091.28;5022240;28;20068;-67
2023/01/14 11:41:28;;;;;;;5.30;1.20;;;;;;;8.24;100.00;100085.22;5021640;28;20107;-67
2023/01/14 11:43:13;;;;;;;3.58;1.05;;;;;;;8.26;100.00;100073.19;5023215;28;20044;-67
2023/01/14 11:45:38;;;;;;;3.80;1.60;;;;;;;8.26;100.00;100078.38;5022803;28;20029;-67
2023/01/14 11:48:25;;;;;;;4.30;1.23;;;;;;;8.29;100.00;100078.44;5021128;28;20034;-67
2023/01/14 11:51:18;;;;;;;2.90;1.30;;;;;;;8.29;100.00;100070.63;5020949;28;20108;-67
2023/01/14 11:53:52;;;;;;;3.83;1.58;;;;;;;8.30;100.00;100059.41;5021055;28;20041;-67
2023/01/14 11:56:31;;;;;;;3.15;1.15;;;;;;;8.32;100.00;100049.94;5023222;28;20475;-67
2023/01/14 11:58:59;;;;;;;4.95;1.50;;;;;;;8.32;100.00;100048.19;5022233;28;20124;-67
2023/01/14 12:01:32;;;;;;;3.50;1.02;;;;;;;8.31;100.00;100053.34;5022878;28;20040;-67
2023/01/14 12:04:06;;;;;;;2.28;0.90;;;;;;;8.30;100.00;100036.06;5021254;28;20030;-67
2023/01/14 12:06:45;;;;;;;3.13;0.93;;;;;;;8.31;100.00;100036.09;5022462;28;20025;-67
2023/01/14 12:09:27;;;;;;;3.05;0.95;;;;;;;8.33;100.00;100036.97;5021875;28;20068;-67